sensor_id;sensor_type;location;lat;lon;timestamp;temperature;humidity
13332;DHT22;6735;51.456;12.626;2023-06-22T00:01:11;20.60;79.60
13332;DHT22;6735;51.456;12.626;2023-06-22T00:03:36;20.70;79.70
13332;DHT22;6735;51.456;12.626;2023-06-22T00:06:01;20.60;79.70
13332;DHT22;6735;51.456;12.626;2023-06-22T00:08:27;20.60;80.10
13332;DHT22;6735;51.456;12.626;2023-06-22T00:10:52;20.50;80.00
13332;DHT22;6735;51.456;12.626;2023-06-22T00:13:18;20.50;80.50
13332;DHT22;6735;51.456;12.626;2023-06-22T00:15:44;20.50;80.40
13332;DHT22;6735;51.456;12.626;2023-06-22T00:18:10;20.40;80.10
13332;DHT22;6735;51.456;12.626;2023-06-22T00:20:36;20.40;80.10
13332;DHT22;6735;51.456;12.626;2023-06-22T00:23:03;20.40;80.20
13332;DHT22;6735;51.456;12.626;2023-06-22T00:25:36;20.40;80.00
13332;DHT22;6735;51.456;12.626;2023-06-22T00:28:02;20.40;80.20
13332;DHT22;6735;51.456;12.626;2023-06-22T00:30:29;20.40;80.40
13332;DHT22;6735;51.456;12.626;2023-06-22T00:32:55;20.40;80.30
13332;DHT22;6735;51.456;12.626;2023-06-22T00:35:21;20.40;80.70
13332;DHT22;6735;51.456;12.626;2023-06-22T00:37:46;20.30;80.80
13332;DHT22;6735;51.456;12.626;2023-06-22T00:40:12;20.30;81.00
13332;DHT22;6735;51.456;12.626;2023-06-22T00:42:38;20.20;81.30
13332;DHT22;6735;51.456;12.626;2023-06-22T00:45:05;20.20;81.30
13332;DHT22;6735;51.456;12.626;2023-06-22T00:47:34;20.10;81.50
13332;DHT22;6735;51.456;12.626;2023-06-22T00:49:59;20.10;81.30
13332;DHT22;6735;51.456;12.626;2023-06-22T00:52:26;20.20;81.40
13332;DHT22;6735;51.456;12.626;2023-06-22T00:54:56;20.20;81.40
13332;DHT22;6735;51.456;12.626;2023-06-22T00:57:22;20.10;81.40
13332;DHT22;6735;51.456;12.626;2023-06-22T00:59:48;20.20;81.40
13332;DHT22;6735;51.456;12.626;2023-06-22T01:02:14;20.20;81.60
13332;DHT22;6735;51.456;12.626;2023-06-22T01:04:40;20.20;81.60
13332;DHT22;6735;51.456;12.626;2023-06-22T01:07:27;20.20;81.90
13332;DHT22;6735;51.456;12.626;2023-06-22T01:10:24;20.10;82.20
13332;DHT22;6735;51.456;12.626;2023-06-22T01:12:56;20.10;82.00
13332;DHT22;6735;51.456;12.626;2023-06-22T01:15:26;20.00;81.90
13332;DHT22;6735;51.456;12.626;2023-06-22T01:17:53;20.00;81.80
13332;DHT22;6735;51.456;12.626;2023-06-22T01:20:20;20.00;81.80
13332;DHT22;6735;51.456;12.626;2023-06-22T01:25:53;19.90;81.60
13332;DHT22;6735;51.456;12.626;2023-06-22T01:28:42;19.90;81.50
13332;DHT22;6735;51.456;12.626;2023-06-22T01:31:09;19.90;81.50
13332;DHT22;6735;51.456;12.626;2023-06-22T01:33:39;19.90;81.50
13332;DHT22;6735;51.456;12.626;2023-06-22T01:36:06;19.80;81.50
13332;DHT22;6735;51.456;12.626;2023-06-22T01:38:33;19.80;81.60
13332;DHT22;6735;51.456;12.626;2023-06-22T01:40:59;19.70;82.20
13332;DHT22;6735;51.456;12.626;2023-06-22T01:43:26;19.70;82.40
13332;DHT22;6735;51.456;12.626;2023-06-22T01:45:56;19.70;82.30
13332;DHT22;6735;51.456;12.626;2023-06-22T01:48:22;19.60;82.50
13332;DHT22;6735;51.456;12.626;2023-06-22T01:50:48;19.60;82.50
13332;DHT22;6735;51.456;12.626;2023-06-22T01:53:14;19.60;83.00
13332;DHT22;6735;51.456;12.626;2023-06-22T01:55:39;19.70;83.00
13332;DHT22;6735;51.456;12.626;2023-06-22T01:58:05;19.70;82.80
13332;DHT22;6735;51.456;12.626;2023-06-22T02:00:33;19.70;82.60
13332;DHT22;6735;51.456;12.626;2023-06-22T02:03:14;19.70;82.80
13332;DHT22;6735;51.456;12.626;2023-06-22T02:05:50;19.70;82.90
13332;DHT22;6735;51.456;12.626;2023-06-22T02:08:23;19.70;83.00
13332;DHT22;6735;51.456;12.626;2023-06-22T02:10:51;19.70;82.80
13332;DHT22;6735;51.456;12.626;2023-06-22T02:13:18;19.70;83.00
13332;DHT22;6735;51.456;12.626;2023-06-22T02:15:45;19.70;82.80
13332;DHT22;6735;51.456;12.626;2023-06-22T02:18:11;19.70;82.80
13332;DHT22;6735;51.456;12.626;2023-06-22T02:20:38;19.70;82.70
13332;DHT22;6735;51.456;12.626;2023-06-22T02:23:04;19.70;82.60
13332;DHT22;6735;51.456;12.626;2023-06-22T02:25:30;19.60;82.60
13332;DHT22;6735;51.456;12.626;2023-06-22T02:27:56;19.60;82.60
13332;DHT22;6735;51.456;12.626;2023-06-22T02:30:22;19.60;82.50
13332;DHT22;6735;51.456;12.626;2023-06-22T02:32:47;19.50;82.60
13332;DHT22;6735;51.456;12.626;2023-06-22T02:35:13;19.50;82.80
13332;DHT22;6735;51.456;12.626;2023-06-22T02:37:38;19.50;83.30
13332;DHT22;6735;51.456;12.626;2023-06-22T02:40:07;19.40;83.50
13332;DHT22;6735;51.456;12.626;2023-06-22T02:42:34;19.40;83.70
13332;DHT22;6735;51.456;12.626;2023-06-22T02:45:00;19.40;83.50
13332;DHT22;6735;51.456;12.626;2023-06-22T02:47:26;19.30;83.40
13332;DHT22;6735;51.456;12.626;2023-06-22T02:49:51;19.30;83.80
13332;DHT22;6735;51.456;12.626;2023-06-22T02:52:17;19.30;83.70
13332;DHT22;6735;51.456;12.626;2023-06-22T02:54:42;19.30;83.70
13332;DHT22;6735;51.456;12.626;2023-06-22T02:57:10;19.30;83.50
13332;DHT22;6735;51.456;12.626;2023-06-22T02:59:39;19.30;83.70
13332;DHT22;6735;51.456;12.626;2023-06-22T03:02:06;19.20;83.50
13332;DHT22;6735;51.456;12.626;2023-06-22T03:04:31;19.20;83.50
13332;DHT22;6735;51.456;12.626;2023-06-22T03:06:57;19.20;83.40
13332;DHT22;6735;51.456;12.626;2023-06-22T03:09:26;19.20;83.40
13332;DHT22;6735;51.456;12.626;2023-06-22T03:11:53;19.20;83.50
13332;DHT22;6735;51.456;12.626;2023-06-22T03:14:18;19.20;83.40
13332;DHT22;6735;51.456;12.626;2023-06-22T03:16:44;19.20;83.40
13332;DHT22;6735;51.456;12.626;2023-06-22T03:19:09;19.30;83.60
13332;DHT22;6735;51.456;12.626;2023-06-22T03:21:37;19.30;83.50
13332;DHT22;6735;51.456;12.626;2023-06-22T03:24:04;19.30;83.50
13332;DHT22;6735;51.456;12.626;2023-06-22T03:26:29;19.40;83.00
13332;DHT22;6735;51.456;12.626;2023-06-22T03:28:55;19.40;83.40
13332;DHT22;6735;51.456;12.626;2023-06-22T03:31:21;19.40;83.40
13332;DHT22;6735;51.456;12.626;2023-06-22T03:33:47;19.40;83.20
13332;DHT22;6735;51.456;12.626;2023-06-22T03:36:13;19.50;82.90
13332;DHT22;6735;51.456;12.626;2023-06-22T03:38:39;19.40;83.00
13332;DHT22;6735;51.456;12.626;2023-06-22T03:41:04;19.50;83.00
13332;DHT22;6735;51.456;12.626;2023-06-22T03:43:30;19.50;83.00
13332;DHT22;6735;51.456;12.626;2023-06-22T03:45:55;19.60;82.60
13332;DHT22;6735;51.456;12.626;2023-06-22T03:48:20;19.60;82.50
13332;DHT22;6735;51.456;12.626;2023-06-22T03:50:46;19.60;82.40
13332;DHT22;6735;51.456;12.626;2023-06-22T03:53:11;19.70;81.90
13332;DHT22;6735;51.456;12.626;2023-06-22T03:55:47;19.80;82.10
13332;DHT22;6735;51.456;12.626;2023-06-22T03:58:14;19.80;82.00
13332;DHT22;6735;51.456;12.626;2023-06-22T04:00:39;19.90;81.90
13332;DHT22;6735;51.456;12.626;2023-06-22T04:03:05;20.00;81.80
13332;DHT22;6735;51.456;12.626;2023-06-22T04:05:32;20.00;81.60
13332;DHT22;6735;51.456;12.626;2023-06-22T04:07:58;20.20;81.40
13332;DHT22;6735;51.456;12.626;2023-06-22T04:10:23;20.20;80.80
13332;DHT22;6735;51.456;12.626;2023-06-22T04:12:49;20.20;80.60
13332;DHT22;6735;51.456;12.626;2023-06-22T04:15:14;20.30;80.60
13332;DHT22;6735;51.456;12.626;2023-06-22T04:17:40;20.40;80.50
13332;DHT22;6735;51.456;12.626;2023-06-22T04:20:06;20.50;80.30
13332;DHT22;6735;51.456;12.626;2023-06-22T04:22:31;20.60;80.10
13332;DHT22;6735;51.456;12.626;2023-06-22T04:24:57;20.80;79.40
13332;DHT22;6735;51.456;12.626;2023-06-22T04:27:22;20.90;78.90
13332;DHT22;6735;51.456;12.626;2023-06-22T04:29:48;21.00;78.20
13332;DHT22;6735;51.456;12.626;2023-06-22T04:32:15;21.10;77.90
13332;DHT22;6735;51.456;12.626;2023-06-22T04:34:41;21.20;77.40
13332;DHT22;6735;51.456;12.626;2023-06-22T04:37:06;21.20;77.10
13332;DHT22;6735;51.456;12.626;2023-06-22T04:39:31;21.40;76.90
13332;DHT22;6735;51.456;12.626;2023-06-22T04:41:57;21.50;76.40
13332;DHT22;6735;51.456;12.626;2023-06-22T04:44:25;21.60;76.50
13332;DHT22;6735;51.456;12.626;2023-06-22T04:46:56;21.60;75.70
13332;DHT22;6735;51.456;12.626;2023-06-22T04:49:26;21.70;75.30
13332;DHT22;6735;51.456;12.626;2023-06-22T04:51:58;21.90;74.90
13332;DHT22;6735;51.456;12.626;2023-06-22T04:54:23;22.10;74.20
13332;DHT22;6735;51.456;12.626;2023-06-22T04:56:49;22.10;74.10
13332;DHT22;6735;51.456;12.626;2023-06-22T04:59:27;22.00;74.30
13332;DHT22;6735;51.456;12.626;2023-06-22T05:01:59;21.90;74.40
13332;DHT22;6735;51.456;12.626;2023-06-22T05:04:26;21.90;75.30
13332;DHT22;6735;51.456;12.626;2023-06-22T05:06:52;21.90;75.40
13332;DHT22;6735;51.456;12.626;2023-06-22T05:09:18;22.00;75.30
13332;DHT22;6735;51.456;12.626;2023-06-22T05:11:44;22.10;75.40
13332;DHT22;6735;51.456;12.626;2023-06-22T05:14:10;22.30;75.40
13332;DHT22;6735;51.456;12.626;2023-06-22T05:16:36;22.80;74.40
13332;DHT22;6735;51.456;12.626;2023-06-22T05:19:02;23.10;72.20
13332;DHT22;6735;51.456;12.626;2023-06-22T05:21:29;23.20;72.00
13332;DHT22;6735;51.456;12.626;2023-06-22T05:23:55;23.20;71.80
13332;DHT22;6735;51.456;12.626;2023-06-22T05:26:25;23.10;71.00
13332;DHT22;6735;51.456;12.626;2023-06-22T05:28:50;23.10;70.90
13332;DHT22;6735;51.456;12.626;2023-06-22T05:31:16;23.00;71.30
13332;DHT22;6735;51.456;12.626;2023-06-22T05:33:43;23.10;71.00
13332;DHT22;6735;51.456;12.626;2023-06-22T05:36:09;23.30;70.50
13332;DHT22;6735;51.456;12.626;2023-06-22T05:38:36;23.70;69.50
13332;DHT22;6735;51.456;12.626;2023-06-22T05:41:02;24.60;67.40
13332;DHT22;6735;51.456;12.626;2023-06-22T05:43:27;25.90;63.60
13332;DHT22;6735;51.456;12.626;2023-06-22T05:45:53;27.00;59.80
13332;DHT22;6735;51.456;12.626;2023-06-22T05:48:18;27.90;56.90
13332;DHT22;6735;51.456;12.626;2023-06-22T05:50:44;27.10;58.20
13332;DHT22;6735;51.456;12.626;2023-06-22T05:53:09;26.20;60.20
13332;DHT22;6735;51.456;12.626;2023-06-22T05:55:35;25.60;63.00
13332;DHT22;6735;51.456;12.626;2023-06-22T05:58:00;25.80;62.60
13332;DHT22;6735;51.456;12.626;2023-06-22T06:00:26;25.60;63.40
13332;DHT22;6735;51.456;12.626;2023-06-22T06:02:51;26.30;62.20
13332;DHT22;6735;51.456;12.626;2023-06-22T06:05:17;27.40;59.40
13332;DHT22;6735;51.456;12.626;2023-06-22T06:07:43;28.40;57.30
13332;DHT22;6735;51.456;12.626;2023-06-22T06:10:09;29.20;54.10
13332;DHT22;6735;51.456;12.626;2023-06-22T06:12:35;30.00;52.10
13332;DHT22;6735;51.456;12.626;2023-06-22T06:15:01;30.40;50.00
13332;DHT22;6735;51.456;12.626;2023-06-22T06:17:26;30.30;48.30
13332;DHT22;6735;51.456;12.626;2023-06-22T06:19:52;30.90;47.90
13332;DHT22;6735;51.456;12.626;2023-06-22T06:22:18;30.90;47.30
13332;DHT22;6735;51.456;12.626;2023-06-22T06:24:45;31.20;45.80
13332;DHT22;6735;51.456;12.626;2023-06-22T06:27:10;31.20;46.10
13332;DHT22;6735;51.456;12.626;2023-06-22T06:29:36;31.30;46.20
13332;DHT22;6735;51.456;12.626;2023-06-22T06:32:01;30.80;46.10
13332;DHT22;6735;51.456;12.626;2023-06-22T06:34:27;30.30;47.00
13332;DHT22;6735;51.456;12.626;2023-06-22T06:36:52;29.80;48.40
13332;DHT22;6735;51.456;12.626;2023-06-22T06:39:18;28.80;49.30
13332;DHT22;6735;51.456;12.626;2023-06-22T06:41:43;28.40;51.00
13332;DHT22;6735;51.456;12.626;2023-06-22T06:44:09;28.20;52.00
13332;DHT22;6735;51.456;12.626;2023-06-22T06:46:34;27.60;53.70
13332;DHT22;6735;51.456;12.626;2023-06-22T06:49:00;27.20;54.90
13332;DHT22;6735;51.456;12.626;2023-06-22T06:51:25;27.20;54.50
13332;DHT22;6735;51.456;12.626;2023-06-22T06:53:51;27.20;54.90
13332;DHT22;6735;51.456;12.626;2023-06-22T06:56:16;27.00;55.30
13332;DHT22;6735;51.456;12.626;2023-06-22T06:58:42;26.90;55.10
13332;DHT22;6735;51.456;12.626;2023-06-22T07:01:08;26.90;55.40
13332;DHT22;6735;51.456;12.626;2023-06-22T07:03:33;26.90;55.90
13332;DHT22;6735;51.456;12.626;2023-06-22T07:05:59;27.00;56.30
13332;DHT22;6735;51.456;12.626;2023-06-22T07:08:25;26.90;55.50
13332;DHT22;6735;51.456;12.626;2023-06-22T07:10:52;26.90;56.10
13332;DHT22;6735;51.456;12.626;2023-06-22T07:13:17;27.40;55.20
13332;DHT22;6735;51.456;12.626;2023-06-22T07:15:43;27.90;54.10
13332;DHT22;6735;51.456;12.626;2023-06-22T07:18:09;28.30;53.50
13332;DHT22;6735;51.456;12.626;2023-06-22T07:20:34;28.40;52.60
13332;DHT22;6735;51.456;12.626;2023-06-22T07:23:00;28.40;52.60
13332;DHT22;6735;51.456;12.626;2023-06-22T07:25:25;28.30;51.80
13332;DHT22;6735;51.456;12.626;2023-06-22T07:28:00;28.20;51.90
13332;DHT22;6735;51.456;12.626;2023-06-22T07:30:27;28.30;51.80
13332;DHT22;6735;51.456;12.626;2023-06-22T07:32:53;28.30;51.90
13332;DHT22;6735;51.456;12.626;2023-06-22T07:35:18;28.70;51.00
13332;DHT22;6735;51.456;12.626;2023-06-22T07:37:44;28.90;49.80
13332;DHT22;6735;51.456;12.626;2023-06-22T07:40:10;28.80;50.60
13332;DHT22;6735;51.456;12.626;2023-06-22T07:42:35;29.00;50.20
13332;DHT22;6735;51.456;12.626;2023-06-22T07:45:05;29.00;50.10
13332;DHT22;6735;51.456;12.626;2023-06-22T07:47:33;28.70;50.40
13332;DHT22;6735;51.456;12.626;2023-06-22T07:50:00;28.70;51.00
13332;DHT22;6735;51.456;12.626;2023-06-22T07:52:27;28.80;51.20
13332;DHT22;6735;51.456;12.626;2023-06-22T07:54:52;28.80;51.10
13332;DHT22;6735;51.456;12.626;2023-06-22T07:57:18;28.90;50.80
13332;DHT22;6735;51.456;12.626;2023-06-22T07:59:44;29.50;50.40
13332;DHT22;6735;51.456;12.626;2023-06-22T08:02:09;29.70;49.50
13332;DHT22;6735;51.456;12.626;2023-06-22T08:04:35;29.70;49.20
13332;DHT22;6735;51.456;12.626;2023-06-22T08:07:01;29.60;49.40
13332;DHT22;6735;51.456;12.626;2023-06-22T08:09:28;29.80;49.40
13332;DHT22;6735;51.456;12.626;2023-06-22T08:11:55;29.90;48.50
13332;DHT22;6735;51.456;12.626;2023-06-22T08:14:22;30.00;48.40
13332;DHT22;6735;51.456;12.626;2023-06-22T08:16:48;30.30;47.50
13332;DHT22;6735;51.456;12.626;2023-06-22T08:19:14;30.60;47.10
13332;DHT22;6735;51.456;12.626;2023-06-22T08:21:39;30.80;46.30
13332;DHT22;6735;51.456;12.626;2023-06-22T08:24:05;30.80;46.70
13332;DHT22;6735;51.456;12.626;2023-06-22T08:26:30;31.00;46.30
13332;DHT22;6735;51.456;12.626;2023-06-22T08:28:58;31.10;46.00
13332;DHT22;6735;51.456;12.626;2023-06-22T08:31:24;31.20;47.10
13332;DHT22;6735;51.456;12.626;2023-06-22T08:33:49;31.20;45.80
13332;DHT22;6735;51.456;12.626;2023-06-22T08:36:15;31.00;45.90
13332;DHT22;6735;51.456;12.626;2023-06-22T08:38:41;31.10;46.20
13332;DHT22;6735;51.456;12.626;2023-06-22T08:41:06;31.10;45.20
13332;DHT22;6735;51.456;12.626;2023-06-22T08:43:33;31.20;45.90
13332;DHT22;6735;51.456;12.626;2023-06-22T08:45:58;30.90;45.00
13332;DHT22;6735;51.456;12.626;2023-06-22T08:48:24;31.20;45.60
13332;DHT22;6735;51.456;12.626;2023-06-22T08:50:49;31.70;44.40
13332;DHT22;6735;51.456;12.626;2023-06-22T08:53:15;31.90;43.90
13332;DHT22;6735;51.456;12.626;2023-06-22T08:55:40;32.00;43.40
13332;DHT22;6735;51.456;12.626;2023-06-22T08:58:06;31.70;44.30
13332;DHT22;6735;51.456;12.626;2023-06-22T09:00:32;31.60;43.70
13332;DHT22;6735;51.456;12.626;2023-06-22T09:03:00;31.50;44.90
13332;DHT22;6735;51.456;12.626;2023-06-22T09:05:25;31.30;44.30
13332;DHT22;6735;51.456;12.626;2023-06-22T09:07:51;31.40;44.60
13332;DHT22;6735;51.456;12.626;2023-06-22T09:10:17;31.30;44.20
13332;DHT22;6735;51.456;12.626;2023-06-22T09:12:43;31.50;44.40
13332;DHT22;6735;51.456;12.626;2023-06-22T09:15:09;31.50;44.10
13332;DHT22;6735;51.456;12.626;2023-06-22T09:17:35;31.60;43.80
13332;DHT22;6735;51.456;12.626;2023-06-22T09:20:01;31.60;43.90
13332;DHT22;6735;51.456;12.626;2023-06-22T09:22:28;31.40;43.30
13332;DHT22;6735;51.456;12.626;2023-06-22T09:24:58;31.40;43.40
13332;DHT22;6735;51.456;12.626;2023-06-22T09:27:25;31.70;43.00
13332;DHT22;6735;51.456;12.626;2023-06-22T09:29:50;32.00;43.00
13332;DHT22;6735;51.456;12.626;2023-06-22T09:32:16;31.90;42.60
13332;DHT22;6735;51.456;12.626;2023-06-22T09:34:41;32.20;42.20
13332;DHT22;6735;51.456;12.626;2023-06-22T09:37:07;32.50;41.80
13332;DHT22;6735;51.456;12.626;2023-06-22T09:39:32;32.60;40.90
13332;DHT22;6735;51.456;12.626;2023-06-22T09:41:59;32.70;40.70
13332;DHT22;6735;51.456;12.626;2023-06-22T09:44:25;32.60;41.10
13332;DHT22;6735;51.456;12.626;2023-06-22T09:46:51;32.70;40.50
13332;DHT22;6735;51.456;12.626;2023-06-22T09:49:16;32.70;40.70
13332;DHT22;6735;51.456;12.626;2023-06-22T09:51:41;33.10;40.40
13332;DHT22;6735;51.456;12.626;2023-06-22T09:54:07;33.40;39.90
13332;DHT22;6735;51.456;12.626;2023-06-22T09:56:32;33.70;38.90
13332;DHT22;6735;51.456;12.626;2023-06-22T09:58:58;33.70;39.30
13332;DHT22;6735;51.456;12.626;2023-06-22T10:01:23;33.80;38.30
13332;DHT22;6735;51.456;12.626;2023-06-22T10:03:52;34.00;38.80
13332;DHT22;6735;51.456;12.626;2023-06-22T10:06:19;33.90;38.60
13332;DHT22;6735;51.456;12.626;2023-06-22T10:08:45;34.00;38.20
13332;DHT22;6735;51.456;12.626;2023-06-22T10:11:10;33.90;37.30
13332;DHT22;6735;51.456;12.626;2023-06-22T10:13:36;33.60;36.10
13332;DHT22;6735;51.456;12.626;2023-06-22T10:16:01;33.50;37.20
13332;DHT22;6735;51.456;12.626;2023-06-22T10:18:27;33.30;38.50
13332;DHT22;6735;51.456;12.626;2023-06-22T10:20:52;33.30;37.60
13332;DHT22;6735;51.456;12.626;2023-06-22T10:23:19;33.20;38.10
13332;DHT22;6735;51.456;12.626;2023-06-22T10:25:45;33.20;37.40
13332;DHT22;6735;51.456;12.626;2023-06-22T10:28:10;33.20;38.20
13332;DHT22;6735;51.456;12.626;2023-06-22T10:30:36;32.90;38.80
13332;DHT22;6735;51.456;12.626;2023-06-22T10:33:01;33.10;39.00
13332;DHT22;6735;51.456;12.626;2023-06-22T10:35:27;33.30;37.30
13332;DHT22;6735;51.456;12.626;2023-06-22T10:37:52;33.30;37.00
13332;DHT22;6735;51.456;12.626;2023-06-22T10:40:19;33.20;38.00
13332;DHT22;6735;51.456;12.626;2023-06-22T10:42:45;33.20;38.20
13332;DHT22;6735;51.456;12.626;2023-06-22T10:45:11;33.30;38.20
13332;DHT22;6735;51.456;12.626;2023-06-22T10:47:36;33.20;37.70
13332;DHT22;6735;51.456;12.626;2023-06-22T10:50:02;33.40;37.20
13332;DHT22;6735;51.456;12.626;2023-06-22T10:52:28;33.00;38.00
13332;DHT22;6735;51.456;12.626;2023-06-22T10:54:53;33.00;38.40
13332;DHT22;6735;51.456;12.626;2023-06-22T10:57:19;33.30;38.00
13332;DHT22;6735;51.456;12.626;2023-06-22T10:59:44;33.70;36.70
13332;DHT22;6735;51.456;12.626;2023-06-22T11:02:10;33.70;36.80
13332;DHT22;6735;51.456;12.626;2023-06-22T11:04:35;34.00;37.20
13332;DHT22;6735;51.456;12.626;2023-06-22T11:07:01;34.10;36.90
13332;DHT22;6735;51.456;12.626;2023-06-22T11:09:26;34.50;35.80
13332;DHT22;6735;51.456;12.626;2023-06-22T11:11:52;34.30;36.00
13332;DHT22;6735;51.456;12.626;2023-06-22T11:14:21;34.60;35.30
13332;DHT22;6735;51.456;12.626;2023-06-22T11:16:47;34.30;35.40
13332;DHT22;6735;51.456;12.626;2023-06-22T11:19:13;34.30;33.80
13332;DHT22;6735;51.456;12.626;2023-06-22T11:21:38;34.40;35.30
13332;DHT22;6735;51.456;12.626;2023-06-22T11:24:04;34.20;35.20
13332;DHT22;6735;51.456;12.626;2023-06-22T11:26:29;34.20;35.80
13332;DHT22;6735;51.456;12.626;2023-06-22T11:28:55;34.30;35.70
13332;DHT22;6735;51.456;12.626;2023-06-22T11:31:21;34.50;34.70
13332;DHT22;6735;51.456;12.626;2023-06-22T11:33:46;34.30;35.10
13332;DHT22;6735;51.456;12.626;2023-06-22T11:36:13;34.30;35.30
13332;DHT22;6735;51.456;12.626;2023-06-22T11:38:39;34.30;36.00
13332;DHT22;6735;51.456;12.626;2023-06-22T11:41:08;34.50;36.00
13332;DHT22;6735;51.456;12.626;2023-06-22T11:43:33;34.60;35.60
13332;DHT22;6735;51.456;12.626;2023-06-22T11:46:03;34.70;35.20
13332;DHT22;6735;51.456;12.626;2023-06-22T11:48:28;34.80;34.70
13332;DHT22;6735;51.456;12.626;2023-06-22T11:50:54;34.60;35.50
13332;DHT22;6735;51.456;12.626;2023-06-22T11:53:21;34.70;35.40
13332;DHT22;6735;51.456;12.626;2023-06-22T11:55:47;34.90;35.20
13332;DHT22;6735;51.456;12.626;2023-06-22T11:58:12;34.80;35.00
13332;DHT22;6735;51.456;12.626;2023-06-22T12:00:38;35.00;35.10
13332;DHT22;6735;51.456;12.626;2023-06-22T12:03:04;35.10;35.40
13332;DHT22;6735;51.456;12.626;2023-06-22T12:05:29;35.20;34.90
13332;DHT22;6735;51.456;12.626;2023-06-22T12:07:55;34.80;35.90
13332;DHT22;6735;51.456;12.626;2023-06-22T12:10:22;34.80;35.30
13332;DHT22;6735;51.456;12.626;2023-06-22T12:12:48;34.60;34.90
13332;DHT22;6735;51.456;12.626;2023-06-22T12:15:13;34.80;35.50
13332;DHT22;6735;51.456;12.626;2023-06-22T12:17:39;35.10;35.70
13332;DHT22;6735;51.456;12.626;2023-06-22T12:20:06;35.40;34.60
13332;DHT22;6735;51.456;12.626;2023-06-22T12:22:32;35.60;33.90
13332;DHT22;6735;51.456;12.626;2023-06-22T12:24:58;35.50;34.60
13332;DHT22;6735;51.456;12.626;2023-06-22T12:27:25;35.40;34.40
13332;DHT22;6735;51.456;12.626;2023-06-22T12:29:51;35.40;34.30
13332;DHT22;6735;51.456;12.626;2023-06-22T12:32:16;35.40;34.30
13332;DHT22;6735;51.456;12.626;2023-06-22T12:34:43;35.40;34.10
13332;DHT22;6735;51.456;12.626;2023-06-22T12:37:08;35.30;35.00
13332;DHT22;6735;51.456;12.626;2023-06-22T12:39:34;35.50;34.20
13332;DHT22;6735;51.456;12.626;2023-06-22T12:42:00;35.70;33.80
13332;DHT22;6735;51.456;12.626;2023-06-22T12:44:25;35.50;34.40
13332;DHT22;6735;51.456;12.626;2023-06-22T12:46:50;35.10;34.40
13332;DHT22;6735;51.456;12.626;2023-06-22T12:49:16;34.70;35.30
13332;DHT22;6735;51.456;12.626;2023-06-22T12:51:43;34.40;35.70
13332;DHT22;6735;51.456;12.626;2023-06-22T12:54:08;34.40;35.90
13332;DHT22;6735;51.456;12.626;2023-06-22T12:56:35;34.40;35.80
13332;DHT22;6735;51.456;12.626;2023-06-22T12:59:00;34.60;34.80
13332;DHT22;6735;51.456;12.626;2023-06-22T13:01:29;35.00;34.50
13332;DHT22;6735;51.456;12.626;2023-06-22T13:03:56;35.00;35.20
13332;DHT22;6735;51.456;12.626;2023-06-22T13:06:21;35.20;34.00
13332;DHT22;6735;51.456;12.626;2023-06-22T13:08:47;35.50;34.20
13332;DHT22;6735;51.456;12.626;2023-06-22T13:11:12;35.20;34.30
13332;DHT22;6735;51.456;12.626;2023-06-22T13:13:38;35.50;33.50
13332;DHT22;6735;51.456;12.626;2023-06-22T13:16:04;35.50;33.60
13332;DHT22;6735;51.456;12.626;2023-06-22T13:18:29;35.50;34.50
13332;DHT22;6735;51.456;12.626;2023-06-22T13:20:55;35.40;34.00
13332;DHT22;6735;51.456;12.626;2023-06-22T13:23:21;35.20;34.00
13332;DHT22;6735;51.456;12.626;2023-06-22T13:25:47;35.10;33.90
13332;DHT22;6735;51.456;12.626;2023-06-22T13:28:13;35.10;34.20
13332;DHT22;6735;51.456;12.626;2023-06-22T13:30:41;35.20;34.20
13332;DHT22;6735;51.456;12.626;2023-06-22T13:33:06;35.20;34.50
13332;DHT22;6735;51.456;12.626;2023-06-22T13:35:31;35.20;33.90
13332;DHT22;6735;51.456;12.626;2023-06-22T13:37:57;35.20;34.30
13332;DHT22;6735;51.456;12.626;2023-06-22T13:40:22;35.40;34.90
13332;DHT22;6735;51.456;12.626;2023-06-22T13:42:48;35.30;35.40
13332;DHT22;6735;51.456;12.626;2023-06-22T13:45:13;35.30;34.90
13332;DHT22;6735;51.456;12.626;2023-06-22T13:47:41;35.30;35.10
13332;DHT22;6735;51.456;12.626;2023-06-22T13:50:07;35.20;34.90
13332;DHT22;6735;51.456;12.626;2023-06-22T13:52:33;34.90;35.70
13332;DHT22;6735;51.456;12.626;2023-06-22T13:54:58;34.70;35.90
13332;DHT22;6735;51.456;12.626;2023-06-22T13:57:24;34.60;36.10
13332;DHT22;6735;51.456;12.626;2023-06-22T13:59:49;34.50;36.20
13332;DHT22;6735;51.456;12.626;2023-06-22T14:02:15;34.30;36.20
13332;DHT22;6735;51.456;12.626;2023-06-22T14:04:40;34.50;36.40
13332;DHT22;6735;51.456;12.626;2023-06-22T14:07:05;34.80;35.90
13332;DHT22;6735;51.456;12.626;2023-06-22T14:09:31;35.00;35.80
13332;DHT22;6735;51.456;12.626;2023-06-22T14:11:57;35.00;35.60
13332;DHT22;6735;51.456;12.626;2023-06-22T14:14:22;35.20;34.90
13332;DHT22;6735;51.456;12.626;2023-06-22T14:16:48;35.00;35.60
13332;DHT22;6735;51.456;12.626;2023-06-22T14:19:16;34.80;35.80
13332;DHT22;6735;51.456;12.626;2023-06-22T14:21:42;34.50;35.90
13332;DHT22;6735;51.456;12.626;2023-06-22T14:24:08;34.30;36.90
13332;DHT22;6735;51.456;12.626;2023-06-22T14:26:33;34.20;36.80
13332;DHT22;6735;51.456;12.626;2023-06-22T14:28:58;34.20;36.10
13332;DHT22;6735;51.456;12.626;2023-06-22T14:31:24;33.80;37.00
13332;DHT22;6735;51.456;12.626;2023-06-22T14:33:50;33.80;37.00
13332;DHT22;6735;51.456;12.626;2023-06-22T14:36:16;34.00;36.80
13332;DHT22;6735;51.456;12.626;2023-06-22T14:38:43;34.10;36.30
13332;DHT22;6735;51.456;12.626;2023-06-22T14:41:08;34.20;37.10
13332;DHT22;6735;51.456;12.626;2023-06-22T14:43:34;34.20;37.00
13332;DHT22;6735;51.456;12.626;2023-06-22T14:45:59;34.20;37.00
13332;DHT22;6735;51.456;12.626;2023-06-22T14:48:25;34.20;37.60
13332;DHT22;6735;51.456;12.626;2023-06-22T14:50:51;34.20;36.90
13332;DHT22;6735;51.456;12.626;2023-06-22T14:53:16;34.40;37.10
13332;DHT22;6735;51.456;12.626;2023-06-22T14:55:42;34.50;36.90
13332;DHT22;6735;51.456;12.626;2023-06-22T14:58:07;34.10;37.00
13332;DHT22;6735;51.456;12.626;2023-06-22T15:00:33;33.90;37.70
13332;DHT22;6735;51.456;12.626;2023-06-22T15:02:58;33.80;38.10
13332;DHT22;6735;51.456;12.626;2023-06-22T15:05:25;33.80;38.10
13332;DHT22;6735;51.456;12.626;2023-06-22T15:07:50;33.80;38.10
13332;DHT22;6735;51.456;12.626;2023-06-22T15:10:16;33.70;38.40
13332;DHT22;6735;51.456;12.626;2023-06-22T15:12:41;33.50;38.50
13332;DHT22;6735;51.456;12.626;2023-06-22T15:15:07;33.60;39.00
13332;DHT22;6735;51.456;12.626;2023-06-22T15:17:33;33.50;38.70
13332;DHT22;6735;51.456;12.626;2023-06-22T15:19:58;33.40;38.90
13332;DHT22;6735;51.456;12.626;2023-06-22T15:22:24;33.30;39.00
13332;DHT22;6735;51.456;12.626;2023-06-22T15:24:50;33.20;39.60
13332;DHT22;6735;51.456;12.626;2023-06-22T15:27:18;33.20;39.30